Cason, Texas
Current Conditions -  °F | °C
As of 12:15 PM on Friday 28 Nov 2014 (Local Time) from KOSA Reporting Station
Clear Clear  
Wind Chill: 63°   Ceiling: Unl
Heat Index: 63°   Visibility: 10mi
Dew Point: 38°   Wind: 13mph
Humidity: 41%   Direction: 180°S
Pressure: 30.22"   Gusts: 17mph
Location:  33.04°N, 94.82°W
Report Text: KOSA 281815Z AUTO 18011G15KT 10SM CLR 17/04 A3022 RMK AO1 T01710036
Loading
Personal Weather Stations






























Interactive Weather Map New forecast layout! Learn more

10-Day Weather Forecast

Advertisements
Track Severe Weather on mobile